LTBL/IGI METAR and TAF weather

Enter ICAO airport designator
Station Type Date Time Source
LTBL METAR 2019/04/24 14:50 UTC NOAA

LTBL 241450Z 22011KT CAVOK 22/04 Q1024 NOSIG RMK RWY17 22011KT


Station Type Date Time Source
LTBL Decoded METAR 2019/04/24 14:50 UTC NOAA

Izmir / Cigli, Turkey (LTBL) 38-30N 027-01E 5M
Apr 24, 2019 - 10:50 AM EDT / 2019.04.24 1450 UTC
Wind: from the SW (220 degrees) at 13 MPH (11 KT):0
Visibility: greater than 7 mile(s):0
Temperature: 71 F (22 C)
Dew Point: 39 F (4 C)
Relative Humidity: 30%
Pressure (altimeter): 30.24 in. Hg (1024 hPa)
ob: LTBL 241450Z 22011KT CAVOK 22/04 Q1024 NOSIG RMK RWY17 22011KT
cycle: 15

Station Type Date Time Source
LTBL TAF UTC NOAA

Error!

Example: see airport list